createdAt,value
2023-01-09T00:02:17.945Z,10.50
2023-01-09T00:09:51.987Z,9.45
2023-01-09T00:17:27.293Z,9.90
2023-01-09T00:25:01.359Z,7.43
2023-01-09T00:32:36.949Z,10.30
2023-01-09T00:40:13.975Z,8.27
2023-01-09T00:47:53.923Z,10.15
2023-01-09T00:55:28.338Z,9.23
2023-01-09T01:03:03.919Z,9.20
2023-01-09T01:10:37.795Z,8.65
2023-01-09T01:18:14.850Z,8.50
2023-01-09T01:25:49.292Z,10.63
2023-01-09T01:33:24.545Z,10.05
2023-01-09T01:40:58.426Z,13.95
2023-01-09T01:48:33.857Z,12.77
2023-01-09T01:56:15.618Z,14.00
2023-01-09T02:03:54.067Z,12.63
2023-01-09T02:11:28.170Z,11.43
2023-01-09T02:19:16.777Z,14.23
2023-01-09T02:27:04.456Z,10.98
2023-01-09T02:34:48.587Z,15.23
2023-01-09T02:42:23.836Z,14.33
2023-01-09T02:50:04.357Z,16.40
2023-01-09T02:57:51.077Z,17.10
2023-01-09T03:05:32.115Z,20.98
2023-01-09T03:13:09.975Z,19.00
2023-01-09T03:20:45.518Z,17.40
2023-01-09T03:28:27.509Z,19.02
2023-01-09T03:36:02.637Z,22.35
2023-01-09T03:43:36.582Z,21.20
2023-01-09T03:51:11.767Z,16.40
2023-01-09T03:58:45.972Z,19.90
2023-01-09T04:06:21.141Z,21.27
2023-01-09T04:13:55.167Z,21.80
2023-01-09T04:21:30.292Z,22.30
2023-01-09T04:29:04.309Z,22.33
2023-01-09T04:36:40.348Z,23.77
2023-01-09T04:44:14.136Z,27.25
2023-01-09T04:51:49.738Z,25.57
2023-01-09T04:59:26.078Z,22.63
2023-01-09T05:07:01.282Z,26.13
2023-01-09T05:14:35.156Z,23.40
2023-01-09T05:22:10.632Z,24.90
2023-01-09T05:29:44.526Z,23.02
2023-01-09T05:37:19.755Z,25.37
2023-01-09T05:44:53.715Z,21.40
2023-01-09T05:52:29.199Z,22.50
2023-01-09T06:00:03.752Z,23.30
2023-01-09T06:07:40.764Z,25.27
2023-01-09T06:15:15.633Z,22.70
2023-01-09T06:22:52.067Z,25.38
2023-01-09T06:30:25.972Z,23.75
2023-01-09T06:38:03.421Z,26.70
2023-01-09T06:45:37.334Z,27.90
2023-01-09T06:53:12.728Z,22.30
2023-01-09T07:00:47.381Z,24.25
2023-01-09T07:15:56.543Z,28.33
2023-01-09T07:23:31.678Z,28.70
2023-01-09T07:31:07.601Z,26.38
2023-01-09T07:38:43.397Z,25.75
2023-01-09T07:46:17.261Z,25.00
2023-01-09T07:53:52.581Z,22.57
2023-01-09T08:01:26.839Z,27.70
2023-01-09T08:09:02.277Z,26.55
2023-01-09T08:16:36.083Z,24.02
2023-01-09T08:24:12.316Z,28.03
2023-01-09T08:31:46.390Z,28.02
2023-01-09T08:39:21.715Z,33.47
2023-01-09T08:47:07.784Z,32.45
2023-01-09T08:54:43.064Z,26.05
2023-01-09T09:02:16.972Z,28.05
2023-01-09T09:09:52.223Z,25.27
2023-01-09T09:17:27.063Z,27.10
2023-01-09T09:32:37.055Z,25.30
2023-01-09T09:40:21.694Z,20.45
2023-01-09T09:48:06.224Z,25.08
2023-01-09T09:55:43.334Z,17.67
2023-01-09T10:03:33.894Z,21.67
2023-01-09T10:11:17.466Z,17.85
2023-01-09T10:19:01.828Z,19.48
2023-01-09T10:26:43.555Z,17.83
2023-01-09T10:34:33.861Z,20.15
2023-01-09T10:42:15.909Z,15.50
2023-01-09T10:49:52.022Z,14.25
2023-01-09T10:57:39.602Z,10.07
2023-01-09T11:05:17.088Z,14.75
2023-01-09T11:12:52.504Z,10.30
2023-01-09T11:20:29.199Z,9.85
2023-01-09T11:28:08.487Z,8.30
2023-01-09T11:35:59.048Z,10.30
2023-01-09T11:43:37.743Z,11.05
2023-01-09T11:51:23.453Z,8.05
2023-01-09T11:59:00.499Z,7.57
2023-01-09T12:06:44.431Z,6.80
2023-01-09T12:14:33.651Z,10.07
2023-01-09T12:22:18.056Z,5.90
2023-01-09T12:30:12.258Z,9.37
2023-01-09T12:38:11.076Z,5.78
2023-01-09T12:46:00.170Z,6.53
2023-01-09T12:53:39.776Z,3.05
2023-01-09T13:01:20.287Z,3.25
2023-01-09T13:08:59.327Z,2.85
2023-01-09T13:16:41.652Z,6.40
2023-01-09T13:24:19.702Z,4.40
2023-01-09T13:32:18.069Z,3.58
2023-01-09T13:40:00.397Z,3.28
2023-01-09T13:47:35.943Z,3.97
2023-01-09T13:55:26.693Z,3.47
2023-01-09T14:03:16.872Z,1.98
2023-01-09T14:10:53.432Z,5.13
2023-01-09T14:18:31.320Z,2.58
2023-01-09T14:26:06.355Z,2.17
2023-01-09T14:33:41.929Z,3.47
2023-01-09T14:41:40.648Z,3.42
2023-01-09T14:49:23.899Z,3.25
2023-01-09T14:56:57.871Z,3.13
2023-01-09T15:04:37.091Z,4.10
2023-01-09T15:12:14.713Z,5.18
2023-01-09T15:19:50.408Z,5.03
2023-01-09T15:27:25.213Z,4.07
2023-01-09T15:42:57.347Z,6.30
2023-01-09T15:50:33.117Z,4.25
2023-01-09T15:58:27.400Z,6.60
2023-01-09T16:06:08.790Z,7.45
2023-01-09T16:13:48.114Z,3.78
2023-01-09T16:21:35.327Z,3.95
2023-01-09T16:29:29.256Z,4.47
2023-01-09T16:37:06.142Z,5.47
2023-01-09T16:44:39.921Z,3.90
2023-01-09T16:52:18.440Z,3.70
2023-01-09T16:59:52.240Z,5.93
2023-01-09T17:07:28.128Z,9.60
2023-01-09T17:15:03.219Z,4.30
2023-01-09T17:22:38.382Z,7.75
2023-01-09T17:30:18.923Z,8.05
2023-01-09T17:37:55.008Z,4.43
2023-01-09T17:45:29.060Z,5.90
2023-01-09T17:53:04.250Z,4.13
2023-01-09T18:00:38.013Z,3.47
2023-01-09T18:08:15.583Z,7.00
2023-01-09T18:15:49.757Z,5.40
2023-01-09T18:23:25.273Z,2.73
2023-01-09T18:30:59.166Z,4.93
2023-01-09T18:38:34.509Z,2.97
2023-01-09T18:46:08.975Z,5.25
2023-01-09T18:53:44.302Z,3.00
2023-01-09T19:01:18.343Z,3.50
2023-01-09T19:08:54.969Z,3.37
2023-01-09T19:16:29.464Z,2.92
2023-01-09T19:24:05.713Z,3.63
2023-01-09T19:31:39.531Z,5.05
2023-01-09T19:39:15.180Z,3.37
2023-01-09T19:46:49.271Z,5.03
2023-01-09T19:54:24.530Z,3.47
2023-01-09T20:01:58.852Z,2.15
2023-01-09T20:09:34.375Z,2.47
2023-01-09T20:17:08.939Z,2.20
2023-01-09T20:24:44.186Z,3.00
2023-01-09T20:32:18.834Z,2.40
2023-01-09T20:39:54.068Z,3.00
2023-01-09T20:47:27.906Z,1.75
2023-01-09T20:55:04.821Z,2.47
2023-01-09T21:02:38.994Z,3.00
2023-01-09T21:10:14.193Z,3.00
2023-01-09T21:17:48.299Z,3.35
2023-01-09T21:25:23.555Z,2.83
2023-01-09T21:32:57.376Z,3.58
2023-01-09T21:40:32.627Z,2.30
2023-01-09T21:48:07.709Z,4.15
2023-01-09T21:55:42.983Z,2.35
2023-01-09T22:03:18.585Z,2.40
2023-01-09T22:10:59.878Z,2.38
2023-01-09T22:18:34.634Z,2.75
2023-01-09T22:33:44.778Z,1.38
2023-01-09T22:41:19.922Z,2.00
2023-01-09T22:48:53.756Z,1.88
2023-01-09T22:56:29.370Z,2.80
2023-01-09T23:04:04.093Z,0.95
2023-01-09T23:19:33.881Z,7.63
2023-01-09T23:27:11.842Z,2.95
2023-01-09T23:34:47.519Z,3.42
2023-01-09T23:42:39.929Z,2.67
2023-01-09T23:50:13.734Z,2.92
2023-01-09T23:57:54.339Z,1.50
